Terminal Aerodrome Forecast
Issued by NWS

Home | Current Version | Previous Version | Text Only | Print | Product List | Glossary On
Versions: 1 2 3 4 5 6 7 8 9 10 11 12
604
FTUS45 KVEF 271720
TAFEED
TAF
KEED 271720Z 2718/2818 19012G18KT P6SM VCSH BKN060 OVC200
     FM272100 20012G18KT P6SM -SHRA BKN040 OVC060
      TEMPO 2723/2803 20010KT 5SM RA BR BKN020
     FM280500 24007KT P6SM VCSH BKN020 OVC040
     FM281500 30011KT P6SM FEW040 SCT060
     FM281700 01011KT P6SM FEW060=

USA.gov is the U.S. government's official web portal to all federal, state and local government web resources and services.